createdAt,value
2023-01-10T00:00:13.979Z,99.99
2023-01-10T00:01:13.878Z,99.99
2023-01-10T00:02:13.891Z,99.99
2023-01-10T00:03:13.846Z,99.99
2023-01-10T00:04:13.859Z,99.99
2023-01-10T00:05:13.832Z,99.99
2023-01-10T00:06:13.789Z,99.99
2023-01-10T00:07:13.794Z,99.99
2023-01-10T00:08:13.747Z,99.99
2023-01-10T00:09:13.731Z,99.99
2023-01-10T00:10:13.710Z,99.99
2023-01-10T00:11:13.685Z,99.99
2023-01-10T00:12:13.710Z,99.99
2023-01-10T00:13:13.647Z,99.99
2023-01-10T00:14:13.624Z,99.99
2023-01-10T00:15:13.626Z,99.99
2023-01-10T00:16:13.601Z,99.99
2023-01-10T00:17:13.568Z,99.99
2023-01-10T00:18:13.549Z,99.99
2023-01-10T00:19:13.532Z,99.99
2023-01-10T00:20:13.520Z,99.99
2023-01-10T00:21:13.492Z,99.99
2023-01-10T00:22:13.469Z,99.99
2023-01-10T00:23:13.516Z,99.99
2023-01-10T00:24:13.458Z,99.99
2023-01-10T00:25:13.413Z,99.99
2023-01-10T00:26:13.397Z,99.99
2023-01-10T00:27:13.374Z,99.99
2023-01-10T00:28:13.369Z,99.99
2023-01-10T00:29:13.387Z,99.99
2023-01-10T00:30:13.314Z,99.99
2023-01-10T00:31:13.342Z,99.99
2023-01-10T00:32:13.277Z,99.99
2023-01-10T00:33:13.258Z,99.99
2023-01-10T00:34:13.237Z,99.99
2023-01-10T00:35:13.248Z,99.99
2023-01-10T00:36:13.276Z,99.99
2023-01-10T00:37:13.181Z,99.99
2023-01-10T00:38:13.169Z,99.99
2023-01-10T00:39:13.180Z,99.99
2023-01-10T00:40:13.131Z,99.99
2023-01-10T00:41:13.119Z,99.99
2023-01-10T00:42:13.083Z,99.99
2023-01-10T00:43:13.064Z,99.99
2023-01-10T00:44:13.051Z,99.99
2023-01-10T00:45:13.057Z,99.99
2023-01-10T00:46:13.053Z,99.99
2023-01-10T00:47:12.986Z,99.99
2023-01-10T00:48:12.973Z,99.99
2023-01-10T00:49:12.943Z,99.99
2023-01-10T00:50:12.962Z,99.99
2023-01-10T00:51:12.907Z,99.99
2023-01-10T00:52:12.882Z,99.99
2023-01-10T00:53:12.866Z,99.99
2023-01-10T00:54:12.850Z,99.99
2023-01-10T00:55:12.879Z,99.99
2023-01-10T00:56:12.811Z,99.99
2023-01-10T00:57:12.802Z,99.99
2023-01-10T00:58:12.773Z,99.99
2023-01-10T00:59:12.776Z,99.99
2023-01-10T01:00:12.727Z,99.99
2023-01-10T01:01:12.835Z,99.99
2023-01-10T01:02:12.822Z,99.99
2023-01-10T01:03:12.668Z,99.99
2023-01-10T01:04:12.693Z,99.99
2023-01-10T01:05:12.636Z,99.99
2023-01-10T01:06:12.624Z,99.99
2023-01-10T01:07:12.589Z,99.99
2023-01-10T01:08:12.581Z,99.99
2023-01-10T01:09:12.551Z,99.99
2023-01-10T01:10:12.571Z,99.99
2023-01-10T01:11:12.517Z,99.99
2023-01-10T01:12:12.501Z,99.99
2023-01-10T01:13:12.476Z,99.99
2023-01-10T01:14:12.484Z,99.99
2023-01-10T01:15:12.486Z,99.99
2023-01-10T01:16:12.445Z,99.99
2023-01-10T01:17:12.398Z,99.99
2023-01-10T01:18:12.383Z,99.99
2023-01-10T01:19:12.396Z,99.99
2023-01-10T01:20:12.341Z,99.99
2023-01-10T01:21:12.317Z,99.99
2023-01-10T01:22:12.312Z,99.99
2023-01-10T01:23:12.288Z,99.99
2023-01-10T01:24:12.266Z,99.99
2023-01-10T01:25:12.238Z,99.99
2023-01-10T01:26:12.222Z,99.99
2023-01-10T01:27:12.200Z,99.99
2023-01-10T01:28:12.183Z,99.99
2023-01-10T01:29:12.184Z,99.99
2023-01-10T01:30:12.173Z,99.99
2023-01-10T01:31:12.131Z,99.99
2023-01-10T01:32:12.104Z,99.99
2023-01-10T01:33:12.082Z,99.99
2023-01-10T01:34:12.060Z,99.99
2023-01-10T01:35:12.085Z,99.99
2023-01-10T01:36:12.040Z,99.99
2023-01-10T01:37:12.007Z,99.99
2023-01-10T01:38:11.986Z,99.99
2023-01-10T01:39:11.969Z,99.99
2023-01-10T01:40:11.941Z,99.99
2023-01-10T01:41:11.948Z,99.99
2023-01-10T01:42:11.909Z,99.99
2023-01-10T01:43:11.884Z,99.99
2023-01-10T01:44:11.874Z,99.99
2023-01-10T01:45:11.879Z,99.99
2023-01-10T01:46:11.836Z,99.99
2023-01-10T01:47:11.805Z,99.99
2023-01-10T01:48:11.795Z,99.99
2023-01-10T01:49:11.772Z,99.99
2023-01-10T01:50:11.791Z,99.99
2023-01-10T01:51:11.738Z,99.99
2023-01-10T01:52:11.730Z,99.99
2023-01-10T01:53:11.698Z,99.99
2023-01-10T01:54:11.672Z,99.99
2023-01-10T01:55:11.679Z,99.99
2023-01-10T01:56:11.666Z,99.99
2023-01-10T01:57:11.617Z,99.99
2023-01-10T01:58:11.660Z,99.99
2023-01-10T01:59:11.585Z,99.99
2023-01-10T02:00:11.551Z,99.99
2023-01-10T02:01:11.577Z,99.99
2023-01-10T02:02:11.587Z,99.99
2023-01-10T02:03:11.531Z,99.99
2023-01-10T02:04:11.535Z,99.99
2023-01-10T02:05:11.475Z,99.99
2023-01-10T02:06:11.474Z,99.99
2023-01-10T02:07:11.429Z,99.99
2023-01-10T02:08:11.403Z,99.99
2023-01-10T02:09:11.380Z,99.99
2023-01-10T02:10:11.388Z,99.99
2023-01-10T02:11:11.337Z,99.99
2023-01-10T02:12:11.336Z,99.99
2023-01-10T02:13:11.305Z,99.99
2023-01-10T02:14:11.286Z,99.99
2023-01-10T02:15:11.294Z,99.99
2023-01-10T02:16:11.334Z,99.99
2023-01-10T02:17:11.228Z,99.99
2023-01-10T02:18:11.216Z,99.99
2023-01-10T02:19:11.188Z,99.99
2023-01-10T02:20:11.230Z,99.99
2023-01-10T02:21:11.152Z,99.99
2023-01-10T02:22:11.124Z,99.99
2023-01-10T02:23:11.108Z,99.99
2023-01-10T02:24:11.092Z,99.99
2023-01-10T02:25:11.087Z,99.99
2023-01-10T02:26:11.087Z,99.99
2023-01-10T02:27:11.026Z,99.99
2023-01-10T02:28:11.007Z,99.99
2023-01-10T02:29:11.000Z,99.99
2023-01-10T02:30:10.967Z,99.99
2023-01-10T02:31:10.986Z,99.99
2023-01-10T02:32:10.938Z,99.99
2023-01-10T02:33:10.916Z,99.99
2023-01-10T02:34:10.890Z,99.99
2023-01-10T02:35:10.871Z,99.99
2023-01-10T02:36:10.907Z,99.99
2023-01-10T02:37:10.857Z,99.99
2023-01-10T02:38:10.822Z,99.99
2023-01-10T02:39:10.787Z,99.99
2023-01-10T02:40:10.783Z,99.99
2023-01-10T02:41:10.750Z,99.99
2023-01-10T02:42:10.784Z,99.99
2023-01-10T02:43:10.722Z,99.99
2023-01-10T02:44:10.701Z,99.99
2023-01-10T02:45:10.673Z,99.99
2023-01-10T02:46:10.708Z,99.99
2023-01-10T02:47:10.691Z,99.99
2023-01-10T02:48:10.626Z,99.99
2023-01-10T02:49:10.599Z,99.99
2023-01-10T02:50:10.576Z,99.99
2023-01-10T02:51:10.554Z,99.99
2023-01-10T02:52:10.550Z,99.99
2023-01-10T02:53:10.555Z,99.99
2023-01-10T02:54:10.527Z,99.99
2023-01-10T02:55:10.494Z,99.99
2023-01-10T02:56:10.472Z,99.99
2023-01-10T02:57:10.445Z,99.99
2023-01-10T02:58:10.480Z,99.99
2023-01-10T02:59:10.398Z,99.99
2023-01-10T03:00:10.382Z,99.99
2023-01-10T03:01:10.420Z,99.99
2023-01-10T03:02:10.429Z,99.99
2023-01-10T03:03:10.356Z,99.99
2023-01-10T03:04:10.303Z,99.99
2023-01-10T03:05:10.330Z,99.99
2023-01-10T03:06:10.273Z,99.99
2023-01-10T03:07:10.243Z,99.99
2023-01-10T03:08:10.249Z,99.99
2023-01-10T03:09:10.207Z,99.99
2023-01-10T03:10:10.186Z,99.99
2023-01-10T03:11:10.185Z,99.99
2023-01-10T03:12:10.151Z,99.99
2023-01-10T03:13:10.134Z,99.99
2023-01-10T03:14:10.116Z,99.99
2023-01-10T03:15:10.084Z,99.99
2023-01-10T03:16:10.152Z,99.99
2023-01-10T03:17:10.046Z,99.99
2023-01-10T03:18:10.039Z,99.99
2023-01-10T03:19:10.032Z,99.99
2023-01-10T03:20:10.002Z,99.99
2023-01-10T03:21:09.969Z,99.99
2023-01-10T03:22:09.977Z,99.99
2023-01-10T03:23:09.928Z,99.99
2023-01-10T03:24:09.939Z,99.99
2023-01-10T03:25:09.890Z,99.99
2023-01-10T03:26:09.878Z,99.99
2023-01-10T03:27:09.907Z,99.99
2023-01-10T03:28:09.838Z,99.99
2023-01-10T03:29:09.813Z,99.99
2023-01-10T03:30:09.797Z,99.99
2023-01-10T03:31:09.794Z,99.99
2023-01-10T03:32:09.753Z,99.99
2023-01-10T03:33:09.775Z,99.99
2023-01-10T03:34:09.725Z,99.99
2023-01-10T03:35:09.695Z,99.99
2023-01-10T03:36:09.683Z,99.99
2023-01-10T03:37:09.668Z,99.99
2023-01-10T03:38:09.648Z,99.99
2023-01-10T03:39:09.643Z,99.99
2023-01-10T03:40:09.596Z,99.99
2023-01-10T03:41:09.577Z,99.99
2023-01-10T03:42:09.578Z,99.99
2023-01-10T03:43:09.574Z,99.99
2023-01-10T03:44:09.520Z,99.99
2023-01-10T03:45:09.539Z,99.99
2023-01-10T03:46:09.582Z,99.99
2023-01-10T03:47:09.473Z,99.99
2023-01-10T03:48:09.465Z,99.99
2023-01-10T03:49:09.418Z,99.99
2023-01-10T03:50:09.463Z,99.99
2023-01-10T03:51:09.405Z,99.99
2023-01-10T03:52:09.373Z,99.99
2023-01-10T03:53:09.342Z,99.99
2023-01-10T03:54:09.335Z,99.99
2023-01-10T03:55:09.321Z,99.99
2023-01-10T03:56:09.286Z,99.99
2023-01-10T03:57:09.267Z,99.99
2023-01-10T03:58:09.255Z,99.99
2023-01-10T03:59:09.245Z,99.99
2023-01-10T04:00:09.209Z,99.99
2023-01-10T04:01:09.350Z,99.99
2023-01-10T04:02:09.194Z,99.99
2023-01-10T04:03:09.144Z,99.99
2023-01-10T04:04:09.192Z,99.99
2023-01-10T04:05:09.120Z,99.99
2023-01-10T04:06:09.110Z,99.99
2023-01-10T04:07:09.076Z,99.99
2023-01-10T04:08:09.059Z,99.99
2023-01-10T04:09:09.037Z,99.99
2023-01-10T04:10:09.009Z,99.99
2023-01-10T04:11:09.048Z,99.99
2023-01-10T04:12:09.036Z,99.99
2023-01-10T04:13:08.952Z,99.99
2023-01-10T04:14:08.939Z,99.99
2023-01-10T04:15:08.920Z,99.99
2023-01-10T04:16:08.929Z,99.99
2023-01-10T04:17:08.877Z,99.99
2023-01-10T04:18:08.857Z,99.99
2023-01-10T04:19:08.859Z,99.99
2023-01-10T04:20:08.824Z,99.99
2023-01-10T04:21:08.795Z,99.99
2023-01-10T04:22:08.780Z,99.99
2023-01-10T04:23:08.831Z,99.99
2023-01-10T04:24:08.738Z,99.99
2023-01-10T04:25:08.720Z,99.99
2023-01-10T04:26:08.707Z,99.99
2023-01-10T04:27:08.673Z,99.99
2023-01-10T04:28:08.658Z,99.99
2023-01-10T04:29:08.697Z,99.99
2023-01-10T04:30:08.617Z,99.99
2023-01-10T04:31:08.635Z,99.99
2023-01-10T04:32:08.582Z,99.99
2023-01-10T04:33:08.568Z,99.99
2023-01-10T04:34:08.539Z,99.99
2023-01-10T04:35:08.541Z,99.99
2023-01-10T04:36:08.577Z,99.99
2023-01-10T04:37:08.496Z,99.99
2023-01-10T04:38:08.471Z,99.99
2023-01-10T04:39:08.457Z,99.99
2023-01-10T04:40:08.431Z,99.99
2023-01-10T04:41:08.399Z,99.99
2023-01-10T04:42:08.432Z,99.99
2023-01-10T04:43:08.362Z,99.99
2023-01-10T04:44:08.349Z,99.99
2023-01-10T04:45:08.325Z,99.99
2023-01-10T04:46:08.366Z,99.99
2023-01-10T04:47:08.282Z,99.99
2023-01-10T04:48:08.281Z,99.99
2023-01-10T04:49:08.243Z,99.99
2023-01-10T04:50:08.220Z,99.99
2023-01-10T04:51:08.202Z,99.99
2023-01-10T04:52:08.186Z,99.99
2023-01-10T04:53:08.238Z,99.99
2023-01-10T04:54:08.164Z,99.99
2023-01-10T04:55:08.122Z,99.99
2023-01-10T04:56:08.103Z,99.99
2023-01-10T04:57:08.081Z,99.99
2023-01-10T04:58:08.082Z,99.99
2023-01-10T04:59:08.079Z,99.99
2023-01-10T05:00:08.035Z,99.99
2023-01-10T05:01:08.115Z,99.99
2023-01-10T05:02:08.133Z,99.99
2023-01-10T05:03:08.034Z,99.99
2023-01-10T05:04:07.947Z,99.99
2023-01-10T05:05:07.936Z,99.99
2023-01-10T05:06:07.906Z,99.99
2023-01-10T05:07:07.888Z,99.99
2023-01-10T05:08:07.870Z,99.99
2023-01-10T05:09:07.898Z,99.99
2023-01-10T05:10:07.881Z,99.99
2023-01-10T05:11:07.812Z,99.99
2023-01-10T05:12:07.792Z,99.99
2023-01-10T05:13:07.770Z,99.99
2023-01-10T05:14:07.753Z,99.99
2023-01-10T05:15:07.799Z,99.99
2023-01-10T05:16:07.822Z,99.99
2023-01-10T05:17:07.690Z,99.99
2023-01-10T05:18:07.665Z,99.99
2023-01-10T05:19:07.664Z,99.99
2023-01-10T05:20:07.634Z,99.99
2023-01-10T05:21:07.611Z,99.99
2023-01-10T05:22:07.628Z,99.99
2023-01-10T05:23:07.606Z,99.99
2023-01-10T05:24:07.553Z,99.99
2023-01-10T05:25:07.531Z,99.99
2023-01-10T05:26:07.506Z,99.99
2023-01-10T05:27:07.515Z,99.99
2023-01-10T05:28:07.497Z,99.99
2023-01-10T05:29:07.453Z,99.99
2023-01-10T05:30:07.430Z,99.99
2023-01-10T05:31:07.439Z,99.99
2023-01-10T05:32:07.387Z,99.99
2023-01-10T05:33:07.471Z,99.99
2023-01-10T05:34:07.346Z,99.99
2023-01-10T05:35:07.335Z,99.99
2023-01-10T05:36:07.310Z,99.99
2023-01-10T05:37:07.294Z,99.99
2023-01-10T05:38:07.296Z,99.99
2023-01-10T05:39:07.252Z,99.99
2023-01-10T05:40:07.248Z,99.99
2023-01-10T05:41:07.210Z,99.99
2023-01-10T05:42:07.191Z,99.99
2023-01-10T05:43:07.177Z,99.99
2023-01-10T05:44:07.176Z,99.99
2023-01-10T05:45:07.203Z,99.99
2023-01-10T05:46:07.153Z,99.99
2023-01-10T05:47:07.091Z,99.99
2023-01-10T05:48:07.075Z,99.99
2023-01-10T05:49:07.055Z,99.99
2023-01-10T05:50:07.026Z,99.99
2023-01-10T05:51:07.013Z,99.99
2023-01-10T05:52:06.988Z,99.99
2023-01-10T05:53:06.992Z,99.99
2023-01-10T05:54:06.955Z,99.99
2023-01-10T05:55:06.932Z,99.99
2023-01-10T05:56:06.971Z,99.99
2023-01-10T05:57:06.915Z,99.99
2023-01-10T05:58:06.875Z,99.99
2023-01-10T05:59:17.002Z,99.99
2023-01-10T06:00:06.827Z,99.99
2023-01-10T06:01:06.881Z,99.99
2023-01-10T06:02:06.851Z,99.99
2023-01-10T06:03:06.883Z,99.99
2023-01-10T06:04:06.750Z,99.99
2023-01-10T06:05:06.746Z,99.99
2023-01-10T06:06:06.714Z,99.99
2023-01-10T06:07:06.756Z,99.99
2023-01-10T06:08:06.672Z,99.99
2023-01-10T06:09:06.668Z,99.99
2023-01-10T06:10:06.653Z,99.99
2023-01-10T06:11:06.614Z,99.99
2023-01-10T06:12:06.609Z,99.99
2023-01-10T06:13:06.632Z,99.99
2023-01-10T06:14:06.557Z,99.99
2023-01-10T06:15:06.541Z,99.99
2023-01-10T06:16:06.614Z,99.99
2023-01-10T06:17:06.500Z,99.99
2023-01-10T06:18:06.478Z,99.99
2023-01-10T06:19:06.493Z,99.99
2023-01-10T06:20:06.431Z,99.99
2023-01-10T06:21:06.423Z,99.99
2023-01-10T06:22:06.394Z,99.99
2023-01-10T06:23:06.393Z,99.99
2023-01-10T06:24:06.355Z,99.99
2023-01-10T06:25:06.374Z,99.99
2023-01-10T06:26:06.318Z,99.99
2023-01-10T06:27:06.306Z,99.99
2023-01-10T06:28:06.277Z,99.99
2023-01-10T06:29:06.272Z,99.99
2023-01-10T06:30:06.318Z,99.99
2023-01-10T06:31:06.353Z,99.99
2023-01-10T06:32:06.197Z,99.99
2023-01-10T06:33:06.184Z,99.99
2023-01-10T06:34:06.158Z,99.99
2023-01-10T06:35:06.148Z,99.99
2023-01-10T06:36:06.149Z,99.99
2023-01-10T06:37:06.102Z,99.99
2023-01-10T06:38:06.087Z,99.99
2023-01-10T06:39:06.061Z,99.99
2023-01-10T06:40:06.045Z,99.99
2023-01-10T06:41:06.047Z,99.99
2023-01-10T06:42:06.043Z,99.99
2023-01-10T06:43:05.985Z,99.99
2023-01-10T06:44:05.967Z,99.99
2023-01-10T06:45:05.948Z,99.99
2023-01-10T06:46:05.974Z,99.99
2023-01-10T06:47:05.982Z,99.99
2023-01-10T06:48:05.901Z,99.99
2023-01-10T06:49:05.869Z,99.99
2023-01-10T06:50:05.841Z,99.99
2023-01-10T06:51:05.839Z,99.99
2023-01-10T06:52:05.809Z,99.99
2023-01-10T06:53:05.813Z,99.99
2023-01-10T06:54:05.768Z,99.99
2023-01-10T06:55:05.751Z,99.99
2023-01-10T06:56:05.725Z,99.99
2023-01-10T06:57:05.713Z,99.99
2023-01-10T06:58:05.718Z,99.99
2023-01-10T06:59:08.304Z,99.99
2023-01-10T07:00:05.650Z,99.99
2023-01-10T07:01:05.724Z,99.99
2023-01-10T07:02:05.722Z,99.99
2023-01-10T07:03:05.617Z,99.99
2023-01-10T07:04:05.687Z,99.99
2023-01-10T07:05:05.553Z,99.99
2023-01-10T07:06:05.527Z,99.99
2023-01-10T07:07:05.506Z,99.99
2023-01-10T07:08:05.503Z,99.99
2023-01-10T07:09:05.469Z,99.99
2023-01-10T07:10:05.456Z,99.99
2023-01-10T07:11:05.433Z,99.99
2023-01-10T07:12:05.416Z,99.99
2023-01-10T07:13:05.397Z,99.99
2023-01-10T07:14:05.401Z,99.99
2023-01-10T07:15:05.389Z,99.99
2023-01-10T07:16:05.380Z,99.99
2023-01-10T07:17:05.313Z,99.99
2023-01-10T07:18:05.289Z,99.99
2023-01-10T07:19:05.290Z,99.99
2023-01-10T07:20:05.255Z,99.99
2023-01-10T07:21:05.262Z,99.99
2023-01-10T07:22:05.212Z,99.99
2023-01-10T07:23:05.194Z,99.99
2023-01-10T07:24:05.177Z,99.99
2023-01-10T07:25:05.156Z,99.99
2023-01-10T07:26:05.164Z,99.99
2023-01-10T07:27:05.117Z,99.99
2023-01-10T07:28:05.103Z,99.99
2023-01-10T07:29:05.093Z,99.99
2023-01-10T07:30:05.096Z,99.99
2023-01-10T07:31:05.067Z,99.99
2023-01-10T07:32:05.071Z,99.99
2023-01-10T07:33:05.000Z,99.99
2023-01-10T07:34:04.976Z,99.99
2023-01-10T07:35:04.968Z,99.99
2023-01-10T07:36:04.939Z,99.99
2023-01-10T07:37:04.923Z,99.99
2023-01-10T07:38:04.929Z,99.99
2023-01-10T07:39:04.883Z,99.99
2023-01-10T07:40:04.873Z,99.99
2023-01-10T07:41:04.841Z,99.99
2023-01-10T07:42:04.876Z,99.99
2023-01-10T07:43:04.810Z,99.99
2023-01-10T07:44:04.788Z,99.99
2023-01-10T07:45:04.777Z,99.99
2023-01-10T07:46:04.805Z,99.99
2023-01-10T07:47:04.776Z,99.99
2023-01-10T07:48:04.731Z,99.99
2023-01-10T07:49:04.689Z,99.99
2023-01-10T07:50:04.671Z,99.99
2023-01-10T07:51:04.652Z,99.99
2023-01-10T07:52:04.637Z,99.99
2023-01-10T07:53:04.648Z,99.99
2023-01-10T07:54:04.600Z,99.99
2023-01-10T07:55:04.570Z,99.99
2023-01-10T07:56:04.550Z,99.99
2023-01-10T07:57:04.540Z,99.99
2023-01-10T07:58:04.538Z,99.99
2023-01-10T07:59:04.508Z,99.99
2023-01-10T08:00:04.477Z,99.99
2023-01-10T08:01:04.536Z,99.99
2023-01-10T08:02:04.429Z,99.99
2023-01-10T08:03:04.570Z,99.99
2023-01-10T08:04:04.413Z,99.99
2023-01-10T08:05:04.393Z,99.99
2023-01-10T08:06:04.361Z,99.99
2023-01-10T08:07:04.341Z,99.99
2023-01-10T08:08:04.340Z,99.99
2023-01-10T08:09:04.311Z,99.99
2023-01-10T08:10:04.345Z,99.99
2023-01-10T08:11:04.265Z,99.99
2023-01-10T08:12:04.239Z,99.99
2023-01-10T08:13:17.796Z,99.99
2023-01-10T08:14:04.201Z,99.99
2023-01-10T08:15:04.187Z,99.99
2023-01-10T08:16:04.308Z,99.99
2023-01-10T08:17:04.150Z,99.99
2023-01-10T08:18:05.011Z,99.99
2023-01-10T08:19:04.106Z,99.99
2023-01-10T08:20:04.085Z,99.99
2023-01-10T08:21:04.093Z,99.99
2023-01-10T08:22:04.074Z,99.99
2023-01-10T08:23:04.035Z,99.99
2023-01-10T08:24:04.011Z,99.99
2023-01-10T08:25:03.987Z,99.99
2023-01-10T08:26:04.027Z,99.99
2023-01-10T08:27:03.957Z,99.99
2023-01-10T08:28:03.993Z,99.99
2023-01-10T08:29:03.907Z,99.99
2023-01-10T08:30:03.885Z,99.99
2023-01-10T08:31:03.905Z,99.99
2023-01-10T08:32:03.850Z,99.99
2023-01-10T08:33:03.835Z,99.99
2023-01-10T08:34:03.848Z,99.99
2023-01-10T08:35:03.795Z,99.99
2023-01-10T08:36:03.771Z,99.99
2023-01-10T08:37:03.756Z,99.99
2023-01-10T08:38:03.742Z,99.99
2023-01-10T08:39:03.756Z,99.99
2023-01-10T08:40:03.703Z,99.99
2023-01-10T08:41:03.676Z,99.99
2023-01-10T08:42:03.656Z,99.99
2023-01-10T08:43:03.643Z,99.99
2023-01-10T08:44:03.643Z,99.99
2023-01-10T08:45:03.599Z,99.99
2023-01-10T08:46:03.580Z,99.99
2023-01-10T08:47:03.554Z,99.99
2023-01-10T08:48:03.565Z,99.99
2023-01-10T08:49:03.534Z,99.99
2023-01-10T08:50:03.642Z,99.99
2023-01-10T08:51:03.485Z,99.99
2023-01-10T08:52:03.460Z,99.99
2023-01-10T08:53:03.460Z,99.99
2023-01-10T08:54:03.430Z,99.99
2023-01-10T08:55:03.400Z,99.99
2023-01-10T08:56:05.549Z,99.99
2023-01-10T08:57:03.430Z,99.99
2023-01-10T08:58:03.343Z,99.99
2023-01-10T08:59:03.343Z,99.99
2023-01-10T09:00:03.317Z,99.99
2023-01-10T09:01:03.318Z,99.74
2023-01-10T09:02:03.280Z,99.27
2023-01-10T09:03:03.340Z,99.90
2023-01-10T09:04:03.231Z,99.48
2023-01-10T09:05:03.948Z,99.99
2023-01-10T09:06:03.184Z,99.99
2023-01-10T09:07:03.208Z,99.99
2023-01-10T09:08:03.161Z,99.99
2023-01-10T09:09:03.129Z,99.99
2023-01-10T09:10:03.128Z,99.99
2023-01-10T09:11:03.120Z,99.99
2023-01-10T09:12:03.065Z,99.99
2023-01-10T09:13:03.100Z,99.99
2023-01-10T09:14:03.049Z,99.99
2023-01-10T09:15:03.012Z,99.79
2023-01-10T09:16:03.072Z,99.69
2023-01-10T09:17:03.007Z,99.54
2023-01-10T09:18:03.163Z,99.95
2023-01-10T09:19:02.962Z,99.99
2023-01-10T09:20:02.913Z,99.99
2023-01-10T09:21:02.891Z,99.99
2023-01-10T09:22:02.873Z,99.99
2023-01-10T09:23:02.851Z,99.99
2023-01-10T09:24:02.860Z,99.99
2023-01-10T09:25:02.812Z,99.99
2023-01-10T09:26:02.795Z,99.95
2023-01-10T09:27:02.770Z,99.99
2023-01-10T09:28:02.775Z,99.99
2023-01-10T09:29:02.775Z,99.85
2023-01-10T09:30:02.713Z,99.99
2023-01-10T09:31:02.745Z,99.99
2023-01-10T09:32:02.682Z,99.99
2023-01-10T09:33:02.685Z,99.99
2023-01-10T09:34:02.637Z,99.85
2023-01-10T09:35:02.642Z,99.99
2023-01-10T09:36:11.157Z,99.99
2023-01-10T09:37:02.578Z,99.99
2023-01-10T09:38:02.564Z,99.99
2023-01-10T09:39:02.585Z,99.85
2023-01-10T09:40:02.559Z,99.99
2023-01-10T09:41:02.507Z,99.99
2023-01-10T09:42:02.479Z,99.99
2023-01-10T09:43:02.463Z,99.99
2023-01-10T09:44:02.545Z,99.95
2023-01-10T09:45:02.421Z,99.99
2023-01-10T09:46:02.400Z,99.54
2023-01-10T09:47:08.464Z,99.85
2023-01-10T09:48:02.366Z,99.95
2023-01-10T09:49:02.354Z,99.99
2023-01-10T09:50:02.349Z,99.99
2023-01-10T09:51:02.306Z,99.99
2023-01-10T09:52:02.288Z,99.99
2023-01-10T09:53:02.269Z,99.99
2023-01-10T09:54:11.027Z,99.99
2023-01-10T09:55:02.231Z,99.99
2023-01-10T09:56:02.215Z,99.99
2023-01-10T09:57:02.195Z,99.99
2023-01-10T09:58:02.171Z,99.90
2023-01-10T09:59:02.148Z,99.99
2023-01-10T10:00:02.169Z,99.99
2023-01-10T10:01:02.163Z,99.99
2023-01-10T10:02:02.093Z,99.85
2023-01-10T10:03:02.096Z,99.85
2023-01-10T10:04:02.135Z,99.54
2023-01-10T10:05:02.048Z,99.74
2023-01-10T10:06:11.728Z,99.99
2023-01-10T10:07:01.995Z,99.33
2023-01-10T10:08:01.977Z,99.43
2023-01-10T10:09:04.202Z,99.43
2023-01-10T10:10:01.987Z,99.43
2023-01-10T10:11:01.915Z,99.43
2023-01-10T10:12:01.911Z,98.82
2023-01-10T10:13:01.873Z,99.33
2023-01-10T10:14:01.873Z,98.87
2023-01-10T10:15:01.836Z,99.60
2023-01-10T10:16:01.870Z,99.29
2023-01-10T10:17:01.827Z,99.29
2023-01-10T10:18:01.785Z,99.18
2023-01-10T10:19:01.768Z,99.60
2023-01-10T10:20:01.748Z,99.70
2023-01-10T10:21:01.746Z,99.08
2023-01-10T10:22:01.703Z,98.87
2023-01-10T10:23:01.698Z,98.77
2023-01-10T10:24:01.667Z,98.56
2023-01-10T10:25:01.649Z,99.60
2023-01-10T10:26:01.632Z,99.29
2023-01-10T10:27:01.619Z,99.80
2023-01-10T10:28:01.640Z,99.39
2023-01-10T10:29:01.574Z,99.39
2023-01-10T10:30:01.553Z,99.34
2023-01-10T10:31:01.541Z,99.14
2023-01-10T10:32:01.514Z,98.52
2023-01-10T10:33:01.490Z,98.46
2023-01-10T10:34:01.471Z,98.15
2023-01-10T10:35:01.451Z,98.25
2023-01-10T10:36:01.440Z,97.84
2023-01-10T10:37:01.439Z,97.32
2023-01-10T10:38:01.411Z,97.74
2023-01-10T10:39:01.401Z,98.56
2023-01-10T10:40:01.368Z,97.69
2023-01-10T10:41:01.402Z,97.84
2023-01-10T10:42:01.323Z,97.38
2023-01-10T10:43:01.311Z,97.49
2023-01-10T10:44:01.283Z,97.84
2023-01-10T10:45:01.297Z,97.59
2023-01-10T10:46:01.302Z,97.38
2023-01-10T10:47:01.259Z,98.10
2023-01-10T10:48:01.204Z,98.72
2023-01-10T10:49:01.216Z,99.40
2023-01-10T10:50:01.167Z,98.41
2023-01-10T10:51:01.209Z,97.59
2023-01-10T10:52:01.135Z,98.00
2023-01-10T10:53:01.113Z,97.42
2023-01-10T10:54:01.088Z,98.05
2023-01-10T10:55:01.069Z,98.15
2023-01-10T10:56:01.056Z,98.35
2023-01-10T10:57:01.067Z,98.52
2023-01-10T10:58:01.324Z,98.62
2023-01-10T10:59:00.995Z,99.14
2023-01-10T11:00:01.003Z,99.34
2023-01-10T11:01:01.205Z,98.83
2023-01-10T11:02:01.226Z,98.83
2023-01-10T11:03:00.917Z,98.77
2023-01-10T11:04:00.908Z,98.97
2023-01-10T11:05:00.945Z,99.49
2023-01-10T11:06:00.862Z,98.72
2023-01-10T11:07:00.862Z,98.56
2023-01-10T11:08:00.852Z,98.72
2023-01-10T11:09:00.800Z,99.14
2023-01-10T11:10:00.791Z,98.15
2023-01-10T11:11:00.771Z,98.56
2023-01-10T11:12:00.782Z,98.72
2023-01-10T11:13:00.732Z,98.25
2023-01-10T11:14:00.725Z,98.77
2023-01-10T11:15:00.693Z,98.52
2023-01-10T11:16:00.740Z,99.39
2023-01-10T11:17:00.683Z,98.46
2023-01-10T11:18:00.633Z,97.74
2023-01-10T11:19:00.613Z,98.56
2023-01-10T11:20:00.597Z,98.46
2023-01-10T11:21:00.583Z,99.18
2023-01-10T11:22:00.560Z,98.66
2023-01-10T11:23:00.539Z,98.97
2023-01-10T11:24:00.528Z,98.87
2023-01-10T11:25:00.531Z,98.87
2023-01-10T11:26:00.490Z,99.14
2023-01-10T11:27:00.475Z,98.77
2023-01-10T11:28:00.445Z,98.87
2023-01-10T11:29:00.477Z,99.18
2023-01-10T11:30:00.414Z,99.18
2023-01-10T11:31:00.394Z,98.25
2023-01-10T11:32:00.454Z,98.46
2023-01-10T11:33:00.342Z,98.83
2023-01-10T11:34:00.326Z,99.29
2023-01-10T11:35:00.301Z,98.87
2023-01-10T11:36:00.354Z,98.77
2023-01-10T11:37:00.264Z,98.97
2023-01-10T11:38:00.247Z,98.56
2023-01-10T11:39:00.222Z,99.29
2023-01-10T11:40:00.206Z,98.41
2023-01-10T11:41:00.190Z,98.21
2023-01-10T11:42:00.172Z,99.29
2023-01-10T11:43:00.154Z,97.69
2023-01-10T11:44:00.138Z,98.52
2023-01-10T11:45:00.172Z,97.94
2023-01-10T11:46:00.179Z,97.59
2023-01-10T11:47:00.093Z,97.74
2023-01-10T11:48:00.052Z,98.41
2023-01-10T11:49:06.123Z,98.31
2023-01-10T11:50:00.018Z,97.89
2023-01-10T11:51:00.009Z,98.10
2023-01-10T11:51:59.981Z,97.07
2023-01-10T11:52:59.970Z,96.97
2023-01-10T11:53:59.950Z,96.66
2023-01-10T11:54:59.923Z,96.76
2023-01-10T11:55:59.911Z,97.44
2023-01-10T11:56:59.918Z,97.59
2023-01-10T11:57:59.873Z,97.59
2023-01-10T11:58:59.871Z,97.54
2023-01-10T11:59:59.828Z,96.45
2023-01-10T12:00:59.831Z,97.02
2023-01-10T12:01:59.894Z,97.44
2023-01-10T12:02:59.796Z,96.92
2023-01-10T12:03:59.766Z,96.47
2023-01-10T12:04:59.830Z,96.92
2023-01-10T12:05:59.721Z,97.19
2023-01-10T12:06:59.695Z,97.02
2023-01-10T12:07:59.708Z,97.50
2023-01-10T12:08:59.671Z,97.39
2023-01-10T12:09:59.639Z,97.39
2023-01-10T12:10:59.632Z,97.19
2023-01-10T12:11:59.611Z,97.50
2023-01-10T12:12:59.614Z,97.60
2023-01-10T12:13:59.588Z,96.67
2023-01-10T12:14:59.551Z,97.91
2023-01-10T12:15:59.529Z,97.71
2023-01-10T12:16:59.572Z,96.98
2023-01-10T12:17:59.518Z,96.88
2023-01-10T12:18:59.501Z,97.39
2023-01-10T12:19:59.452Z,97.19
2023-01-10T12:20:59.436Z,96.56
2023-01-10T12:21:59.420Z,97.60
2023-01-10T12:22:59.403Z,96.67
2023-01-10T12:23:59.433Z,97.19
2023-01-10T12:24:59.359Z,97.19
2023-01-10T12:26:11.065Z,97.60
2023-01-10T12:26:59.323Z,98.11
2023-01-10T12:27:59.299Z,98.11
2023-01-10T12:28:59.283Z,97.39
2023-01-10T12:29:59.291Z,97.39
2023-01-10T12:30:59.333Z,97.81
2023-01-10T12:31:59.232Z,97.50
2023-01-10T12:32:59.208Z,97.60
2023-01-10T12:33:59.186Z,97.60
2023-01-10T12:34:59.199Z,97.50
2023-01-10T12:35:59.181Z,97.91
2023-01-10T12:36:59.152Z,97.39
2023-01-10T12:37:59.151Z,97.50
2023-01-10T12:38:59.156Z,96.88
2023-01-10T12:39:59.087Z,96.47
2023-01-10T12:40:59.060Z,96.67
2023-01-10T12:41:59.036Z,97.39
2023-01-10T12:42:59.020Z,95.95
2023-01-10T12:43:59.004Z,95.95
2023-01-10T12:44:58.982Z,95.22
2023-01-10T12:46:01.179Z,95.43
2023-01-10T12:47:09.935Z,96.05
2023-01-10T12:47:58.928Z,95.43
2023-01-10T12:48:58.918Z,96.15
2023-01-10T12:49:58.888Z,95.64
2023-01-10T12:50:58.901Z,95.02
2023-01-10T12:51:58.881Z,94.92